createdAt,value
2023-04-24T00:01:09.116Z,56.81
2023-04-24T00:04:11.412Z,57.20
2023-04-24T00:07:13.582Z,57.14
2023-04-24T00:10:15.262Z,57.23
2023-04-24T00:13:17.074Z,57.54
2023-04-24T00:16:18.800Z,57.49
2023-04-24T00:19:20.515Z,57.35
2023-04-24T00:22:22.213Z,57.62
2023-04-24T00:25:23.844Z,57.77
2023-04-24T00:28:25.362Z,58.18
2023-04-24T00:31:27.252Z,58.36
2023-04-24T00:34:28.977Z,58.28
2023-04-24T00:37:30.675Z,58.44
2023-04-24T00:40:32.262Z,58.37
2023-04-24T00:43:34.022Z,58.34
2023-04-24T00:46:36.999Z,58.41
2023-04-24T00:49:38.771Z,58.47
2023-04-24T00:52:40.398Z,58.77
2023-04-24T00:55:41.953Z,58.67
2023-04-24T00:58:44.206Z,58.52
2023-04-24T01:01:46.358Z,58.38
2023-04-24T01:04:48.013Z,58.45
2023-04-24T01:07:49.561Z,58.45
2023-04-24T01:10:52.998Z,58.40
2023-04-24T01:13:54.638Z,58.18
2023-04-24T01:16:56.197Z,58.18
2023-04-24T01:19:57.848Z,58.07
2023-04-24T01:22:59.610Z,58.02
2023-04-24T01:26:01.236Z,57.84
2023-04-24T01:29:02.943Z,57.83
2023-04-24T01:32:05.545Z,57.72
2023-04-24T01:35:08.353Z,57.83
2023-04-24T01:38:10.041Z,57.94
2023-04-24T01:41:11.736Z,57.99
2023-04-24T01:44:13.350Z,58.01
2023-04-24T01:47:15.020Z,58.22
2023-04-24T01:50:16.769Z,58.12
2023-04-24T01:53:18.411Z,58.31
2023-04-24T01:56:21.392Z,58.71
2023-04-24T01:59:24.700Z,58.79
2023-04-24T02:02:26.799Z,58.79
2023-04-24T02:05:29.202Z,58.75
2023-04-24T02:08:30.889Z,58.72
2023-04-24T02:11:32.365Z,58.67
2023-04-24T02:14:34.124Z,58.71
2023-04-24T02:17:35.884Z,58.80
2023-04-24T02:20:37.474Z,58.79
2023-04-24T02:23:38.985Z,58.99
2023-04-24T02:26:40.568Z,59.12
2023-04-24T02:29:42.850Z,59.12
2023-04-24T02:32:44.941Z,59.31
2023-04-24T02:35:46.692Z,59.28
2023-04-24T02:38:48.208Z,59.56
2023-04-24T02:41:49.880Z,59.69
2023-04-24T02:44:51.401Z,59.73
2023-04-24T02:47:53.265Z,59.85
2023-04-24T02:50:55.362Z,59.79
2023-04-24T02:53:57.069Z,60.25
2023-04-24T02:56:58.750Z,60.55
2023-04-24T03:00:00.296Z,60.48
2023-04-24T03:03:02.568Z,60.62
2023-04-24T03:06:04.445Z,60.88
2023-04-24T03:09:05.956Z,60.86
2023-04-24T03:12:07.734Z,60.93
2023-04-24T03:15:09.733Z,60.86
2023-04-24T03:18:11.457Z,61.23
2023-04-24T03:21:13.217Z,61.15
2023-04-24T03:24:14.772Z,61.17
2023-04-24T03:27:16.393Z,61.41
2023-04-24T03:30:17.917Z,61.46
2023-04-24T03:33:19.543Z,61.51
2023-04-24T03:36:21.131Z,61.64
2023-04-24T03:39:22.840Z,61.82
2023-04-24T03:42:24.513Z,61.75
2023-04-24T03:45:26.080Z,61.97
2023-04-24T03:48:27.875Z,62.08
2023-04-24T03:51:29.484Z,62.28
2023-04-24T03:54:31.132Z,62.23
2023-04-24T03:57:33.178Z,62.25
2023-04-24T04:00:34.734Z,62.50
2023-04-24T04:03:36.542Z,62.05
2023-04-24T04:06:38.758Z,62.01
2023-04-24T04:09:40.403Z,62.07
2023-04-24T04:12:42.149Z,61.97
2023-04-24T04:15:43.694Z,62.17
2023-04-24T04:18:45.877Z,62.51
2023-04-24T04:21:47.535Z,63.02
2023-04-24T04:24:49.081Z,63.77
2023-04-24T04:27:50.792Z,63.89
2023-04-24T04:30:52.481Z,63.88
2023-04-24T04:33:54.197Z,63.99
2023-04-24T04:36:55.915Z,63.87
2023-04-24T04:39:59.096Z,63.73
2023-04-24T04:43:00.713Z,63.87
2023-04-24T04:46:02.376Z,63.84
2023-04-24T04:49:04.137Z,63.77
2023-04-24T04:52:06.066Z,63.70
2023-04-24T04:55:08.194Z,63.85
2023-04-24T04:58:09.852Z,63.86
2023-04-24T05:01:11.734Z,64.04
2023-04-24T05:04:13.631Z,63.95
2023-04-24T05:07:15.581Z,63.94
2023-04-24T05:10:17.262Z,64.20
2023-04-24T05:13:22.854Z,64.58
2023-04-24T05:16:30.388Z,64.70
2023-04-24T05:19:32.085Z,64.26
2023-04-24T05:22:33.932Z,63.98
2023-04-24T05:25:35.619Z,63.35
2023-04-24T05:28:37.323Z,63.07
2023-04-24T05:31:39.004Z,62.33
2023-04-24T05:34:40.737Z,62.06
2023-04-24T05:37:42.388Z,61.60
2023-04-24T05:40:44.411Z,61.19
2023-04-24T05:43:46.176Z,60.83
2023-04-24T05:46:47.973Z,60.43
2023-04-24T05:49:49.681Z,60.16
2023-04-24T05:52:51.271Z,59.85
2023-04-24T05:55:53.068Z,59.29
2023-04-24T05:58:54.708Z,58.95
2023-04-24T06:01:56.463Z,58.71
2023-04-24T06:04:58.500Z,58.34
2023-04-24T06:08:00.484Z,57.74
2023-04-24T06:11:04.357Z,57.13
2023-04-24T06:14:06.305Z,56.70
2023-04-24T06:17:07.920Z,56.13
2023-04-24T06:20:09.900Z,55.28
2023-04-24T06:23:11.572Z,53.79
2023-04-24T06:26:13.255Z,52.64
2023-04-24T06:29:14.909Z,52.46
2023-04-24T06:32:16.683Z,53.01
2023-04-24T06:35:18.837Z,52.02
2023-04-24T06:38:20.606Z,50.40
2023-04-24T06:41:22.317Z,48.11
2023-04-24T06:44:23.953Z,49.91
2023-04-24T06:47:25.608Z,50.54
2023-04-24T06:50:27.347Z,50.73
2023-04-24T06:53:29.064Z,48.15
2023-04-24T06:56:31.004Z,48.05
2023-04-24T06:59:32.595Z,46.81
2023-04-24T07:02:34.292Z,47.28
2023-04-24T07:05:36.467Z,47.03
2023-04-24T07:08:38.585Z,46.99
2023-04-24T07:11:40.726Z,47.13
2023-04-24T07:14:42.413Z,46.13
2023-04-24T07:17:44.195Z,45.05
2023-04-24T07:20:46.031Z,43.55
2023-04-24T07:23:47.652Z,43.26
2023-04-24T07:26:49.461Z,42.46
2023-04-24T07:29:51.066Z,42.09
2023-04-24T07:32:52.785Z,40.95
2023-04-24T07:35:54.426Z,40.33
2023-04-24T07:38:56.525Z,38.72
2023-04-24T07:41:58.460Z,38.05
2023-04-24T07:45:00.117Z,37.43
2023-04-24T07:48:02.366Z,37.61
2023-04-24T07:51:04.153Z,35.75
2023-04-24T07:54:06.395Z,36.00
2023-04-24T07:57:08.214Z,36.43
2023-04-24T08:00:10.355Z,35.31
2023-04-24T08:03:12.351Z,35.42
2023-04-24T08:06:14.185Z,33.07
2023-04-24T08:09:15.788Z,31.54
2023-04-24T08:12:17.510Z,33.48
2023-04-24T08:15:19.422Z,33.76
2023-04-24T08:18:21.088Z,33.90
2023-04-24T08:21:22.759Z,31.86
2023-04-24T08:24:24.416Z,32.83
2023-04-24T08:27:27.316Z,31.29
2023-04-24T08:30:29.389Z,30.59
2023-04-24T08:33:31.934Z,31.73
2023-04-24T08:36:45.825Z,31.67
2023-04-24T08:39:49.774Z,32.16
2023-04-24T08:42:54.862Z,31.85
2023-04-24T08:45:58.154Z,30.89
2023-04-24T08:49:00.595Z,31.71
2023-04-24T08:52:02.952Z,31.33
2023-04-24T08:55:07.007Z,30.99
2023-04-24T08:58:09.332Z,30.38
2023-04-24T09:01:11.339Z,31.39
2023-04-24T09:04:14.033Z,31.80
2023-04-24T09:07:17.636Z,30.80
2023-04-24T09:10:19.533Z,31.30
2023-04-24T09:13:21.517Z,32.08
2023-04-24T09:16:23.465Z,31.05
2023-04-24T09:19:25.105Z,31.01
2023-04-24T09:22:30.958Z,31.17
2023-04-24T09:25:34.025Z,30.35
2023-04-24T09:28:41.187Z,29.58
2023-04-24T09:31:42.917Z,29.85
2023-04-24T09:34:48.270Z,30.44
2023-04-24T09:37:49.939Z,29.35
2023-04-24T09:40:51.781Z,29.17
2023-04-24T09:43:55.282Z,28.89
2023-04-24T09:46:59.005Z,29.38
2023-04-24T09:50:00.693Z,28.12
2023-04-24T09:53:04.553Z,29.24
2023-04-24T09:56:10.414Z,29.59
2023-04-24T09:59:13.799Z,29.11
2023-04-24T10:02:19.772Z,29.28
2023-04-24T10:05:25.002Z,28.89
2023-04-24T10:08:26.908Z,28.26
2023-04-24T10:11:29.087Z,28.93
2023-04-24T10:14:31.304Z,29.14
2023-04-24T10:17:33.698Z,27.58
2023-04-24T10:20:37.593Z,28.96
2023-04-24T10:23:39.724Z,29.31
2023-04-24T10:26:41.752Z,29.86
2023-04-24T10:29:44.670Z,30.99
2023-04-24T10:32:46.770Z,30.73
2023-04-24T10:35:51.139Z,30.57
2023-04-24T10:38:54.177Z,30.82
2023-04-24T10:41:56.313Z,31.14
2023-04-24T10:44:58.398Z,30.01
2023-04-24T10:48:08.876Z,29.95
2023-04-24T10:51:13.911Z,30.20
2023-04-24T10:54:28.855Z,29.47
2023-04-24T10:57:30.525Z,29.47
2023-04-24T11:00:32.380Z,28.63
2023-04-24T11:03:37.371Z,27.92
2023-04-24T11:06:39.232Z,28.62
2023-04-24T11:09:43.304Z,28.80
2023-04-24T11:12:44.919Z,26.94
2023-04-24T11:16:16.472Z,26.43
2023-04-24T11:19:18.115Z,25.64
2023-04-24T11:22:19.982Z,26.56
2023-04-24T11:25:22.452Z,26.60
2023-04-24T11:28:25.567Z,26.95
2023-04-24T11:31:41.493Z,27.88
2023-04-24T11:34:46.919Z,28.06
2023-04-24T11:38:08.104Z,26.77
2023-04-24T11:41:12.567Z,26.29
2023-04-24T11:44:14.915Z,25.29
2023-04-24T11:47:17.001Z,26.10
2023-04-24T11:50:20.693Z,26.72
2023-04-24T11:53:22.394Z,27.11
2023-04-24T11:56:25.115Z,27.12
2023-04-24T11:59:26.797Z,26.90
2023-04-24T12:02:28.690Z,27.00
2023-04-24T12:05:30.963Z,26.90
2023-04-24T12:08:32.655Z,26.42
2023-04-24T12:11:34.261Z,26.75
2023-04-24T12:14:54.765Z,27.60
2023-04-24T12:17:57.846Z,27.83
2023-04-24T12:21:23.469Z,28.03
2023-04-24T12:24:25.229Z,28.65
2023-04-24T12:27:26.977Z,26.81
2023-04-24T12:30:29.662Z,27.48
2023-04-24T12:33:35.307Z,27.87
2023-04-24T12:36:37.128Z,28.55
2023-04-24T12:39:38.847Z,29.58
2023-04-24T12:42:51.187Z,30.35
2023-04-24T12:45:52.861Z,31.55
2023-04-24T12:48:54.461Z,31.86
2023-04-24T12:51:56.112Z,32.71
2023-04-24T12:54:59.862Z,33.06
2023-04-24T12:58:01.560Z,33.24
2023-04-24T13:01:03.281Z,33.64
2023-04-24T13:04:06.742Z,33.82
2023-04-24T13:07:08.699Z,34.05
2023-04-24T13:10:10.659Z,34.41
2023-04-24T13:13:13.359Z,34.59
2023-04-24T13:16:15.112Z,34.81
2023-04-24T13:19:16.774Z,35.35
2023-04-24T13:22:19.199Z,36.04
2023-04-24T13:25:21.012Z,36.69
2023-04-24T13:28:22.614Z,36.74
2023-04-24T13:31:24.568Z,37.20
2023-04-24T13:34:27.112Z,37.55
2023-04-24T13:37:28.919Z,38.59
2023-04-24T13:40:30.480Z,39.26
2023-04-24T13:43:32.146Z,40.02
2023-04-24T13:46:34.020Z,40.25
2023-04-24T13:49:36.128Z,40.57
2023-04-24T13:52:38.871Z,40.71
2023-04-24T13:55:40.619Z,40.86
2023-04-24T13:58:42.247Z,41.36
2023-04-24T14:01:44.256Z,41.72
2023-04-24T14:04:46.247Z,42.82
2023-04-24T14:07:48.199Z,43.48
2023-04-24T14:10:49.861Z,43.39
2023-04-24T14:13:51.561Z,43.51
2023-04-24T14:20:56.028Z,45.13
2023-04-24T14:23:57.658Z,44.94
2023-04-24T14:26:59.311Z,45.13
2023-04-24T14:30:01.187Z,45.64
2023-04-24T14:33:02.998Z,46.02
2023-04-24T14:36:04.912Z,46.20
2023-04-24T14:39:07.099Z,46.12
2023-04-24T14:42:08.706Z,46.71
2023-04-24T14:45:10.822Z,47.20
2023-04-24T14:48:12.633Z,47.25
2023-04-24T14:51:14.281Z,47.18
2023-04-24T14:54:16.051Z,47.11
2023-04-24T14:57:17.965Z,47.00
2023-04-24T15:00:20.186Z,46.99
2023-04-24T15:03:22.573Z,47.12
2023-04-24T15:06:24.585Z,47.23
2023-04-24T15:09:26.181Z,47.88
2023-04-24T15:12:28.142Z,47.83
2023-04-24T15:15:29.825Z,47.44
2023-04-24T15:18:31.497Z,47.72
2023-04-24T15:21:33.214Z,47.67
2023-04-24T15:24:35.239Z,47.58
2023-04-24T15:27:44.561Z,47.95
2023-04-24T15:30:46.292Z,48.20
2023-04-24T15:33:48.365Z,47.63
2023-04-24T15:36:50.500Z,47.41
2023-04-24T15:39:52.086Z,47.35
2023-04-24T15:42:53.715Z,47.56
2023-04-24T15:45:55.578Z,47.67
2023-04-24T15:48:57.358Z,47.55
2023-04-24T15:51:59.018Z,47.53
2023-04-24T15:55:01.049Z,47.53
2023-04-24T15:58:02.983Z,47.56
2023-04-24T16:01:04.761Z,47.58
2023-04-24T16:04:06.485Z,47.62
2023-04-24T16:07:08.214Z,47.84
2023-04-24T16:10:10.767Z,47.95
2023-04-24T16:13:13.449Z,48.27
2023-04-24T16:16:15.146Z,48.20
2023-04-24T16:19:16.857Z,48.74
2023-04-24T16:22:18.557Z,49.03
2023-04-24T16:25:20.337Z,49.17
2023-04-24T16:28:22.369Z,49.65
2023-04-24T16:31:24.100Z,49.53
2023-04-24T16:34:25.823Z,49.91
2023-04-24T16:37:29.146Z,50.23
2023-04-24T16:40:31.352Z,50.54
2023-04-24T16:43:33.174Z,50.96
2023-04-24T16:46:35.291Z,51.09
2023-04-24T16:49:37.445Z,51.16
2023-04-24T16:52:39.360Z,51.54
2023-04-24T16:55:40.970Z,51.26
2023-04-24T16:58:42.612Z,52.23
2023-04-24T17:01:44.400Z,51.59
2023-04-24T17:04:46.298Z,51.84
2023-04-24T17:07:47.952Z,51.78
2023-04-24T17:10:49.655Z,51.93
2023-04-24T17:13:51.598Z,52.17
2023-04-24T17:16:53.515Z,52.33
2023-04-24T17:19:55.299Z,52.11
2023-04-24T17:22:57.251Z,52.67
2023-04-24T17:25:58.945Z,52.99
2023-04-24T17:29:00.589Z,53.20
2023-04-24T17:32:02.273Z,52.86
2023-04-24T17:35:04.060Z,53.01
2023-04-24T17:38:05.800Z,53.38
2023-04-24T17:41:07.515Z,54.02
2023-04-24T17:44:09.173Z,54.48
2023-04-24T17:47:10.965Z,54.48
2023-04-24T17:50:12.619Z,54.89
2023-04-24T17:53:14.312Z,54.54
2023-04-24T17:56:16.023Z,54.03
2023-04-24T17:59:17.710Z,54.08
2023-04-24T18:02:19.583Z,53.89
2023-04-24T18:05:21.541Z,53.76
2023-04-24T18:08:23.180Z,53.98
2023-04-24T18:11:24.880Z,53.85
2023-04-24T18:14:26.536Z,53.82
2023-04-24T18:17:29.460Z,53.80
2023-04-24T18:20:31.128Z,53.90
2023-04-24T18:23:32.736Z,54.10
2023-04-24T18:26:34.911Z,54.22
2023-04-24T18:29:36.686Z,54.34
2023-04-24T18:32:38.386Z,54.41
2023-04-24T18:35:40.128Z,54.29
2023-04-24T18:38:42.067Z,54.50
2023-04-24T18:41:43.740Z,54.62
2023-04-24T18:44:45.536Z,54.56
2023-04-24T18:47:47.248Z,54.97
2023-04-24T18:50:48.932Z,54.67
2023-04-24T18:53:50.567Z,54.71
2023-04-24T18:56:52.620Z,54.61
2023-04-24T18:59:54.219Z,55.06
2023-04-24T19:02:56.009Z,55.25
2023-04-24T19:05:57.874Z,55.49
2023-04-24T19:08:59.675Z,55.94
2023-04-24T19:12:01.370Z,55.59
2023-04-24T19:15:03.278Z,55.85
2023-04-24T19:18:05.491Z,55.93
2023-04-24T19:21:07.246Z,56.10
2023-04-24T19:24:08.840Z,56.52
2023-04-24T19:27:10.462Z,56.40
2023-04-24T19:30:12.364Z,56.70
2023-04-24T19:33:14.057Z,56.41
2023-04-24T19:36:16.768Z,56.49
2023-04-24T19:39:18.491Z,56.60
2023-04-24T19:42:28.485Z,56.75
2023-04-24T19:45:37.903Z,57.43
2023-04-24T19:48:40.139Z,56.79
2023-04-24T19:51:41.755Z,57.25
2023-04-24T19:54:43.940Z,57.39
2023-04-24T19:57:45.659Z,57.32
2023-04-24T20:00:47.391Z,57.39
2023-04-24T20:03:49.376Z,57.64
2023-04-24T20:06:51.212Z,57.66
2023-04-24T20:09:52.845Z,57.73
2023-04-24T20:12:54.812Z,58.19
2023-04-24T20:15:56.490Z,58.10
2023-04-24T20:18:58.628Z,58.35
2023-04-24T20:22:00.368Z,58.62
2023-04-24T20:25:02.599Z,58.95
2023-04-24T20:28:04.279Z,59.02
2023-04-24T20:31:05.946Z,59.00
2023-04-24T20:34:08.040Z,59.26
2023-04-24T20:37:09.815Z,59.37
2023-04-24T20:41:07.966Z,59.50
2023-04-24T20:44:09.685Z,59.46
2023-04-24T20:47:11.734Z,59.85
2023-04-24T20:50:13.395Z,59.73
2023-04-24T20:53:15.027Z,60.11
2023-04-24T20:56:17.004Z,60.79
2023-04-24T20:59:18.634Z,60.66
2023-04-24T21:02:20.368Z,60.65
2023-04-24T21:05:22.097Z,60.57
2023-04-24T21:08:23.820Z,61.20
2023-04-24T21:11:25.435Z,61.22
2023-04-24T21:14:27.097Z,61.05
2023-04-24T21:17:28.771Z,61.32
2023-04-24T21:20:30.455Z,61.29
2023-04-24T21:23:32.129Z,61.48
2023-04-24T21:26:34.398Z,62.14
2023-04-24T21:29:36.086Z,62.27
2023-04-24T21:32:37.926Z,62.09
2023-04-24T21:35:39.566Z,61.66
2023-04-24T21:38:41.237Z,61.64
2023-04-24T21:41:42.945Z,61.70
2023-04-24T21:44:44.610Z,61.66
2023-04-24T21:47:46.353Z,61.73
2023-04-24T21:50:48.171Z,61.84
2023-04-24T21:53:50.209Z,61.96
2023-04-24T21:56:52.398Z,61.69
2023-04-24T21:59:54.226Z,61.92
2023-04-24T22:02:56.105Z,62.03
2023-04-24T22:05:57.869Z,62.13
2023-04-24T22:08:59.767Z,62.04
2023-04-24T22:12:01.599Z,62.31
2023-04-24T22:15:03.521Z,63.13
2023-04-24T22:18:05.581Z,63.71
2023-04-24T22:21:07.412Z,63.33
2023-04-24T22:24:09.052Z,64.42
2023-04-24T22:27:10.664Z,64.60
2023-04-24T22:30:12.559Z,64.43
2023-04-24T22:33:14.240Z,63.95
2023-04-24T22:36:16.069Z,64.05
2023-04-24T22:39:17.740Z,63.78
2023-04-24T22:42:20.059Z,63.68
2023-04-24T22:45:21.736Z,63.80
2023-04-24T22:48:23.641Z,63.92
2023-04-24T22:51:25.344Z,64.15
2023-04-24T22:54:29.026Z,64.64
2023-04-24T22:57:31.574Z,64.57
2023-04-24T23:00:33.227Z,65.26
2023-04-24T23:03:35.054Z,65.65
2023-04-24T23:06:37.343Z,66.42
2023-04-24T23:09:39.079Z,67.10
2023-04-24T23:12:40.937Z,67.94
2023-04-24T23:15:42.848Z,67.68
2023-04-24T23:18:44.456Z,69.18
2023-04-24T23:21:46.204Z,69.85
2023-04-24T23:24:47.861Z,69.95
2023-04-24T23:27:49.552Z,69.46
2023-04-24T23:30:51.289Z,70.96
2023-04-24T23:33:52.965Z,74.05
2023-04-24T23:36:55.450Z,73.87
2023-04-24T23:39:57.064Z,74.11
2023-04-24T23:43:07.408Z,73.46
2023-04-24T23:46:10.055Z,72.90
2023-04-24T23:49:11.694Z,73.61
2023-04-24T23:52:13.375Z,72.35
2023-04-24T23:55:15.040Z,74.02
2023-04-24T23:58:16.662Z,75.75
